Time;durP1;ratioP1;P1;durP2;ratioP2;P2;SDS_P1;SDS_P2;PMS_P1;PMS_P2;Temp;Humidity;BMP_temperature;BMP_pressure;BME280_temperature;BME280_humidity;BME280_pressure;Samples;Min_cycle;Max_cycle;Signal;HPM_P1;HPM_P2
2023/08/27 00:00:06;;;;;;;;;;;18.00;99.90;18.10;99117.00;;;;339808;28;95484;-90
2023/08/27 00:00:18;;;;;;;;;;;18.00;99.90;18.10;99120.00;;;;340598;28;83382;-90
2023/08/27 00:00:29;;;;;;;;;;;18.00;99.90;18.10;99118.00;;;;338392;28;96345;-90
2023/08/27 00:00:41;;;;;;;;;;;18.00;99.90;18.10;99112.00;;;;340562;28;83331;-90
2023/08/27 00:00:53;;;;;;;;;;;18.00;99.90;18.20;99121.00;;;;339843;28;96652;-89
2023/08/27 00:01:05;;;;;;;;;;;18.00;99.90;18.10;99120.00;;;;337776;28;83535;-90
2023/08/27 00:01:17;;;;;;;;;;;18.00;99.90;18.10;99115.00;;;;338324;28;95151;-90
2023/08/27 00:01:28;;;;;;;;;;;18.00;99.90;18.10;99111.00;;;;340549;28;83476;-89
2023/08/27 00:01:40;;;;;;;;;;;18.00;99.90;18.20;99113.00;;;;338438;28;96808;-90
2023/08/27 00:01:52;;;;;;;;;;;18.00;99.90;18.10;99115.00;;;;340654;28;83295;-90
2023/08/27 00:02:04;;;;;;;;;;;18.00;99.90;18.10;99113.00;;;;339805;28;96838;-90
2023/08/27 00:02:16;;;;;;;;;;;18.00;99.90;18.10;99115.00;;;;341867;28;83445;-90
2023/08/27 00:02:28;;;;;;;;;;;18.00;99.90;18.10;99119.00;;;;339807;28;96781;-91
2023/08/27 00:02:39;;;;;;;;;;;18.00;99.90;18.20;99107.00;;;;339550;28;83381;-90
2023/08/27 00:02:51;;;;;;;;;;;18.00;99.90;18.20;99113.00;;;;337459;28;95422;-90
2023/08/27 00:03:03;;;;;;;;;;;18.00;99.90;18.10;99116.00;;;;339359;28;83425;-90
2023/08/27 00:03:15;;;;;;;;;;;18.00;99.90;18.10;99113.00;;;;338760;28;96628;-90
2023/08/27 00:03:27;;;;;;;;;;;18.00;99.90;18.10;99113.00;;;;339505;28;83467;-90
2023/08/27 00:03:39;;;;;;;;;;;18.00;99.90;18.20;99107.00;;;;341407;28;95696;-90
2023/08/27 00:03:52;;;;;;;;;;;18.00;99.90;18.20;99110.00;;;;340820;28;82516;-90
2023/08/27 00:04:04;;;;;;;;;;;18.00;99.90;18.20;99104.00;;;;337501;28;96619;-90
2023/08/27 00:04:16;;;;;;;;;;;18.00;99.90;18.10;99103.00;;;;340791;28;82645;-90
2023/08/27 00:04:28;;;;;;;;;;;18.00;99.90;18.10;99095.00;;;;338480;28;97077;-90
2023/08/27 00:04:42;;;;;;;;;;;18.00;99.90;18.20;99099.00;;;;336861;28;83425;-90
2023/08/27 00:04:54;;;;;;;;;;;18.00;99.90;18.30;99090.00;;;;337420;28;96422;-90
2023/08/27 00:05:07;;;;;;;;;;;18.00;99.90;18.20;99091.00;;;;339444;28;83445;-90
2023/08/27 00:05:19;;;;;;;;;;;18.00;99.90;18.20;99092.00;;;;338681;28;96895;-90
2023/08/27 00:05:31;;;;;;;;;;;18.00;99.90;18.20;99086.00;;;;340713;28;83499;-90
2023/08/27 00:05:45;;;;;;;;;;;18.00;99.90;18.20;99079.00;;;;338699;28;96276;-90
2023/08/27 00:05:57;;;;;;;;;;;18.00;99.90;18.20;99083.00;;;;339498;28;82616;-91
2023/08/27 00:06:09;;;;;;;;;;;18.00;99.90;18.10;99081.00;;;;338788;28;94922;-90
2023/08/27 00:06:21;;;;;;;;;;;18.00;99.90;18.10;99069.00;;;;340791;28;83431;-90
2023/08/27 00:06:32;;;;;;;;;;;18.00;99.90;18.00;99075.00;;;;340010;28;97677;-90
2023/08/27 00:06:44;;;;;;;;;;;18.00;99.90;18.20;99070.00;;;;340883;28;82480;-90
2023/08/27 00:06:56;;;;;;;;;;;18.00;99.90;18.30;99069.00;;;;340058;28;95384;-90
2023/08/27 00:07:08;;;;;;;;;;;18.00;99.90;18.30;99053.00;;;;340789;28;82527;-90
2023/08/27 00:07:20;;;;;;;;;;;18.00;99.90;18.20;99062.00;;;;339997;28;95127;-90
2023/08/27 00:07:31;;;;;;;;;;;18.00;99.90;18.30;99055.00;;;;338121;28;83513;-90
2023/08/27 00:07:43;;;;;;;;;;;18.00;99.90;18.30;99056.00;;;;340032;28;95508;-90
2023/08/27 00:07:55;;;;;;;;;;;18.00;99.90;18.30;99043.00;;;;339572;28;83385;-91
2023/08/27 00:08:07;;;;;;;;;;;18.00;99.90;18.20;99044.00;;;;336079;28;96651;-90
2023/08/27 00:08:19;;;;;;;;;;;18.00;99.90;18.10;99052.00;;;;338063;28;83572;-91
2023/08/27 00:08:31;;;;;;;;;;;18.00;99.90;18.20;99040.00;;;;338569;28;97908;-90
2023/08/27 00:08:43;;;;;;;;;;;18.00;99.90;18.10;99032.00;;;;339472;28;83382;-91
2023/08/27 00:08:54;;;;;;;;;;;18.00;99.90;18.10;99036.00;;;;337447;28;96411;-90
2023/08/27 00:09:06;;;;;;;;;;;18.10;99.90;18.00;99027.00;;;;340651;28;82549;-90
2023/08/27 00:09:18;;;;;;;;;;;18.10;99.90;18.20;99036.00;;;;338727;28;95272;-90
2023/08/27 00:09:30;;;;;;;;;;;18.00;99.90;18.30;99020.00;;;;340756;28;83404;-90
2023/08/27 00:09:42;;;;;;;;;;;18.00;99.90;18.30;99027.00;;;;340023;28;96448;-90
2023/08/27 00:09:54;;;;;;;;;;;18.00;99.90;18.20;99018.00;;;;338151;28;82572;-90
2023/08/27 00:10:07;;;;;;;;;;;18.00;99.90;18.30;99013.00;;;;340032;28;96913;-90
2023/08/27 00:10:19;;;;;;;;;;;18.10;99.90;18.30;99017.00;;;;342017;28;82611;-90
2023/08/27 00:10:30;;;;;;;;;;;18.00;99.90;18.30;99016.00;;;;339823;28;98174;-90
2023/08/27 00:10:42;;;;;;;;;;;18.00;99.90;18.30;99017.00;;;;340919;28;82439;-90
2023/08/27 00:11:00;;;;;;;;;;;18.10;99.90;18.20;99014.00;;;;340097;28;95435;-90
2023/08/27 00:11:12;;;;;;;;;;;18.00;99.90;18.00;99012.00;;;;339500;28;83427;-90
2023/08/27 00:11:23;;;;;;;;;;;18.00;99.90;18.10;99009.00;;;;340027;28;95489;-90
2023/08/27 00:11:35;;;;;;;;;;;18.10;99.90;18.10;99019.00;;;;339474;28;83471;-90
2023/08/27 00:11:47;;;;;;;;;;;18.00;99.90;18.20;99012.00;;;;334729;29;96640;-90
2023/08/27 00:11:59;;;;;;;;;;;18.00;99.90;18.20;99011.00;;;;340767;28;83390;-90
2023/08/27 00:12:11;;;;;;;;;;;18.00;99.90;18.20;99011.00;;;;341376;28;96832;-90
2023/08/27 00:12:22;;;;;;;;;;;18.00;99.90;18.30;99008.00;;;;340598;28;83574;-90
2023/08/27 00:12:34;;;;;;;;;;;18.00;99.90;18.30;99015.00;;;;340037;28;97658;-91
2023/08/27 00:12:46;;;;;;;;;;;18.00;99.90;18.30;99014.00;;;;342099;28;82986;-90
2023/08/27 00:12:58;;;;;;;;;;;18.00;99.90;18.30;99009.00;;;;337410;28;95678;-90
2023/08/27 00:13:10;;;;;;;;;;;18.00;99.90;18.30;99010.00;;;;340825;28;82464;-90
2023/08/27 00:13:22;;;;;;;;;;;18.00;99.90;18.40;99015.00;;;;337394;28;95535;-90
2023/08/27 00:13:34;;;;;;;;;;;18.10;99.90;18.40;99016.00;;;;337953;28;82572;-90
2023/08/27 00:13:46;;;;;;;;;;;18.10;99.90;18.40;99022.00;;;;338627;28;95482;-89
2023/08/27 00:13:58;;;;;;;;;;;18.10;99.90;18.40;99036.00;;;;340812;28;83446;-90
2023/08/27 00:14:10;;;;;;;;;;;18.10;99.90;18.40;99030.00;;;;339975;28;96641;-91
2023/08/27 00:14:22;;;;;;;;;;;18.10;99.90;18.30;99031.00;;;;339452;28;84280;-90
2023/08/27 00:14:33;;;;;;;;;;;18.10;99.90;18.30;99042.00;;;;338570;28;96241;-91
2023/08/27 00:14:45;;;;;;;;;;;18.10;99.90;18.30;99038.00;;;;342094;28;82611;-90
2023/08/27 00:14:57;;;;;;;;;;;18.10;99.90;18.30;99047.00;;;;340019;28;96000;-90
2023/08/27 00:15:09;;;;;;;;;;;18.10;99.90;18.40;99047.00;;;;339443;28;82601;-90
2023/08/27 00:15:21;;;;;;;;;;;18.10;99.90;18.40;99047.00;;;;338662;28;95206;-90
2023/08/27 00:15:33;;;;;;;;;;;18.10;99.90;18.40;99044.00;;;;342150;28;83378;-88
2023/08/27 00:15:45;;;;;;;;;;;18.10;99.90;18.40;99048.00;;;;340016;28;96469;-90
2023/08/27 00:15:57;;;;;;;;;;;18.10;99.90;18.40;99058.00;;;;340816;28;83371;-90
2023/08/27 00:16:09;;;;;;;;;;;18.10;99.90;18.50;99057.00;;;;340095;28;95677;-90
2023/08/27 00:16:21;;;;;;;;;;;18.10;99.90;18.40;99061.00;;;;339465;28;83460;-90
2023/08/27 00:16:35;;;;;;;;;;;18.20;99.90;18.40;99056.00;;;;338504;28;97487;-90
2023/08/27 00:16:47;;;;;;;;;;;18.20;99.90;18.50;99057.00;;;;338210;28;83310;-90
2023/08/27 00:16:59;;;;;;;;;;;18.20;99.90;18.40;99060.00;;;;339835;28;95579;-90
2023/08/27 00:17:10;;;;;;;;;;;18.20;99.90;18.50;99062.00;;;;339473;28;83509;-90
2023/08/27 00:17:23;;;;;;;;;;;18.20;99.90;18.40;99065.00;;;;337414;28;97068;-90
2023/08/27 00:17:35;;;;;;;;;;;18.10;99.90;18.40;99070.00;;;;339427;28;83399;-91
2023/08/27 00:17:47;;;;;;;;;;;18.20;99.90;18.50;99063.00;;;;339940;28;96642;-90
2023/08/27 00:17:59;;;;;;;;;;;18.20;99.90;18.40;99053.00;;;;342012;28;82555;-89
2023/08/27 00:18:12;;;;;;;;;;;18.20;99.90;18.40;99065.00;;;;338701;28;96827;-90
2023/08/27 00:18:24;;;;;;;;;;;18.20;99.90;18.30;99068.00;;;;341990;28;83380;-90
2023/08/27 00:18:36;;;;;;;;;;;18.20;99.90;18.30;99066.00;;;;339994;28;96309;-90
2023/08/27 00:18:48;;;;;;;;;;;18.10;99.90;18.30;99068.00;;;;339479;28;83390;-90
2023/08/27 00:18:59;;;;;;;;;;;18.20;99.90;18.20;99068.00;;;;340027;28;96511;-90
2023/08/27 00:19:11;;;;;;;;;;;18.20;99.90;18.20;99062.00;;;;340798;28;83536;-90
2023/08/27 00:19:23;;;;;;;;;;;18.20;99.90;18.30;99062.00;;;;338562;28;95337;-90
2023/08/27 00:19:35;;;;;;;;;;;18.10;99.90;18.30;99070.00;;;;339540;28;83435;-90
2023/08/27 00:19:47;;;;;;;;;;;18.20;99.90;18.20;99084.00;;;;341329;28;96438;-90
2023/08/27 00:19:59;;;;;;;;;;;18.10;99.90;18.20;99078.00;;;;339538;28;82483;-90
2023/08/27 00:20:11;;;;;;;;;;;18.10;99.90;18.20;99083.00;;;;337321;28;94953;-90
2023/08/27 00:20:23;;;;;;;;;;;18.10;99.90;18.20;99073.00;;;;340816;28;83327;-90
2023/08/27 00:20:35;;;;;;;;;;;18.10;99.90;18.20;99080.00;;;;338620;28;97326;-90
2023/08/27 00:20:47;;;;;;;;;;;18.10;99.90;18.20;99073.00;;;;340743;28;83602;-89
2023/08/27 00:20:59;;;;;;;;;;;18.10;99.90;18.30;99075.00;;;;341386;28;95445;-89
2023/08/27 00:21:11;;;;;;;;;;;18.10;99.90;18.10;99076.00;;;;339364;28;83539;-92
2023/08/27 00:21:22;;;;;;;;;;;18.10;99.90;18.10;99083.00;;;;337401;28;95563;-89
2023/08/27 00:21:34;;;;;;;;;;;18.10;99.90;18.10;99071.00;;;;340807;28;82514;-90
2023/08/27 00:21:46;;;;;;;;;;;18.10;99.90;18.10;99081.00;;;;338577;28;96639;-90
2023/08/27 00:21:58;;;;;;;;;;;18.10;99.90;18.00;99079.00;;;;339457;28;82537;-90
2023/08/27 00:22:10;;;;;;;;;;;18.10;99.90;18.00;99073.00;;;;340035;28;95486;-90
2023/08/27 00:22:21;;;;;;;;;;;18.10;99.90;18.00;99077.00;;;;339458;28;82627;-90
2023/08/27 00:22:34;;;;;;;;;;;18.10;99.90;18.00;99075.00;;;;339912;28;98327;-90
2023/08/27 00:22:45;;;;;;;;;;;18.10;99.90;18.10;99077.00;;;;338065;28;83567;-90
2023/08/27 00:22:57;;;;;;;;;;;18.10;99.90;18.10;99077.00;;;;340006;28;95850;-90
2023/08/27 00:23:11;;;;;;;;;;;18.10;99.90;18.10;99081.00;;;;342103;28;83545;-89
2023/08/27 00:23:24;;;;;;;;;;;18.10;99.90;18.10;99081.00;;;;339961;28;96802;-90
2023/08/27 00:23:38;;;;;;;;;;;18.10;99.90;18.00;99081.00;;;;338152;28;82484;-90
2023/08/27 00:23:49;;;;;;;;;;;18.10;99.90;18.10;99073.00;;;;339987;28;95803;-90
2023/08/27 00:24:01;;;;;;;;;;;18.10;99.90;18.20;99077.00;;;;339429;28;83437;-90
2023/08/27 00:24:13;;;;;;;;;;;18.10;99.90;18.30;99071.00;;;;338716;28;94807;-90
2023/08/27 00:24:25;;;;;;;;;;;18.10;99.90;18.20;99077.00;;;;340746;28;82515;-90
2023/08/27 00:24:38;;;;;;;;;;;18.10;99.90;18.20;99077.00;;;;337389;28;96474;-89
2023/08/27 00:24:49;;;;;;;;;;;18.10;99.90;18.10;99076.00;;;;338131;28;83449;-89
2023/08/27 00:25:01;;;;;;;;;;;18.10;99.90;18.20;99080.00;;;;339978;28;96619;-90
2023/08/27 00:25:13;;;;;;;;;;;18.10;99.90;18.20;99079.00;;;;340761;28;82535;-89
2023/08/27 00:25:25;;;;;;;;;;;18.10;99.90;18.20;99081.00;;;;337344;28;95463;-89
2023/08/27 00:25:37;;;;;;;;;;;18.10;99.90;18.10;99065.00;;;;338126;28;83419;-89
2023/08/27 00:25:49;;;;;;;;;;;18.10;99.90;18.10;99079.00;;;;338671;28;95318;-90
2023/08/27 00:26:01;;;;;;;;;;;18.10;99.90;18.10;99072.00;;;;339474;28;83484;-90
2023/08/27 00:26:12;;;;;;;;;;;18.10;99.90;18.10;99074.00;;;;336055;28;96484;-90
2023/08/27 00:26:24;;;;;;;;;;;18.10;99.90;18.10;99074.00;;;;340729;28;82573;-90
2023/08/27 00:26:36;;;;;;;;;;;18.10;99.90;18.00;99069.00;;;;341272;28;97361;-90
2023/08/27 00:26:48;;;;;;;;;;;18.10;99.90;18.00;99061.00;;;;338085;28;83443;-90
2023/08/27 00:27:00;;;;;;;;;;;18.10;99.90;18.00;99072.00;;;;340028;28;95327;-90
2023/08/27 00:27:11;;;;;;;;;;;18.10;99.90;18.00;99068.00;;;;338150;28;83434;-90
2023/08/27 00:27:23;;;;;;;;;;;18.10;99.90;18.10;99075.00;;;;338719;28;96429;-90
2023/08/27 00:27:35;;;;;;;;;;;18.10;99.90;18.10;99083.00;;;;339566;28;82517;-89
2023/08/27 00:27:47;;;;;;;;;;;18.10;99.90;18.10;99081.00;;;;338570;28;95647;-90
2023/08/27 00:27:59;;;;;;;;;;;18.10;99.90;18.00;99073.00;;;;339502;28;83412;-90
2023/08/27 00:28:11;;;;;;;;;;;18.10;99.90;18.00;99072.00;;;;341149;28;94700;-89
2023/08/27 00:28:23;;;;;;;;;;;18.10;99.90;18.00;99071.00;;;;339427;28;82586;-90
2023/08/27 00:28:35;;;;;;;;;;;18.10;99.90;18.00;99076.00;;;;338581;28;97436;-89
2023/08/27 00:28:47;;;;;;;;;;;18.00;99.90;18.00;99075.00;;;;339510;28;82421;-90
2023/08/27 00:28:59;;;;;;;;;;;18.10;99.90;18.00;99072.00;;;;337347;28;96691;-89
2023/08/27 00:29:11;;;;;;;;;;;18.10;99.90;18.00;99067.00;;;;339446;28;82524;-89
2023/08/27 00:29:23;;;;;;;;;;;18.00;99.90;18.00;99076.00;;;;341170;28;96657;-90
2023/08/27 00:29:34;;;;;;;;;;;18.10;99.90;18.00;99071.00;;;;342137;28;82297;-89
2023/08/27 00:29:46;;;;;;;;;;;18.00;99.90;18.00;99076.00;;;;338538;28;95208;-89
2023/08/27 00:29:58;;;;;;;;;;;18.00;99.90;17.90;99063.00;;;;342131;28;83389;-89
2023/08/27 00:30:11;;;;;;;;;;;18.00;99.90;17.90;99077.00;;;;341348;28;96183;-90
2023/08/27 00:30:23;;;;;;;;;;;18.00;99.90;18.00;99070.00;;;;340753;28;83490;-90
2023/08/27 00:30:36;;;;;;;;;;;18.00;99.90;18.10;99072.00;;;;338577;28;96412;-90
2023/08/27 00:30:47;;;;;;;;;;;18.00;99.90;18.00;99067.00;;;;339437;28;82522;-89
2023/08/27 00:31:01;;;;;;;;;;;18.00;99.90;18.00;99067.00;;;;337270;28;96744;-90
2023/08/27 00:31:13;;;;;;;;;;;18.00;99.90;18.00;99067.00;;;;336779;28;83527;-90
2023/08/27 00:31:25;;;;;;;;;;;18.00;99.90;18.00;99072.00;;;;339993;28;95790;-90
2023/08/27 00:31:37;;;;;;;;;;;18.00;99.90;18.00;99070.00;;;;342134;28;83272;-89
2023/08/27 00:31:49;;;;;;;;;;;18.00;99.90;18.00;99076.00;;;;338621;28;96887;-89
2023/08/27 00:32:01;;;;;;;;;;;18.00;99.90;18.00;99064.00;;;;340710;28;83247;-90
2023/08/27 00:32:33;;;;;;;;;;;18.00;99.90;18.00;99066.00;;;;338646;28;96439;-89
2023/08/27 00:32:45;;;;;;;;;;;18.00;99.90;18.00;99067.00;;;;338169;28;83308;-90
2023/08/27 00:32:56;;;;;;;;;;;18.00;99.90;18.00;99061.00;;;;339906;28;97625;-89
2023/08/27 00:33:09;;;;;;;;;;;18.00;99.90;18.00;99068.00;;;;340633;28;82362;-89
2023/08/27 00:33:21;;;;;;;;;;;18.00;99.90;17.90;99068.00;;;;338688;28;96845;-89
2023/08/27 00:33:32;;;;;;;;;;;18.00;99.90;17.90;99060.00;;;;338123;28;82563;-89
2023/08/27 00:33:44;;;;;;;;;;;18.00;99.90;17.90;99061.00;;;;337274;28;95652;-90
2023/08/27 00:33:56;;;;;;;;;;;18.00;99.90;18.00;99068.00;;;;340769;28;83410;-90
2023/08/27 00:34:08;;;;;;;;;;;18.00;99.90;18.00;99061.00;;;;339963;28;96602;-89
2023/08/27 00:34:20;;;;;;;;;;;18.00;99.90;18.00;99063.00;;;;340742;28;83460;-89
2023/08/27 00:34:33;;;;;;;;;;;18.00;99.90;18.00;99060.00;;;;339984;28;96931;-90
2023/08/27 00:34:45;;;;;;;;;;;18.00;99.90;17.90;99064.00;;;;340847;28;83397;-89
2023/08/27 00:34:57;;;;;;;;;;;18.00;99.90;18.00;99058.00;;;;337234;28;96788;-89
2023/08/27 00:35:09;;;;;;;;;;;18.00;99.90;18.00;99058.00;;;;339334;28;82478;-89
2023/08/27 00:35:21;;;;;;;;;;;18.00;99.90;17.90;99064.00;;;;338642;28;95513;-90
2023/08/27 00:35:32;;;;;;;;;;;18.00;99.90;18.00;99057.00;;;;339512;28;82491;-89
2023/08/27 00:35:47;;;;;;;;;;;18.00;99.90;18.00;99053.00;;;;335924;28;96656;-90
2023/08/27 00:35:58;;;;;;;;;;;18.00;99.90;18.10;99053.00;;;;339371;28;82537;-89
2023/08/27 00:36:10;;;;;;;;;;;18.00;99.90;18.10;99053.00;;;;340116;28;94268;-89
2023/08/27 00:36:22;;;;;;;;;;;18.10;99.90;18.10;99055.00;;;;339371;28;82514;-89
2023/08/27 00:36:34;;;;;;;;;;;18.10;99.90;18.10;99048.00;;;;338678;28;96608;-89
2023/08/27 00:36:46;;;;;;;;;;;18.00;99.90;18.10;99053.00;;;;339543;28;82545;-90
2023/08/27 00:37:01;;;;;;;;;;;18.00;99.90;18.10;99050.00;;;;338538;28;97392;-89
2023/08/27 00:37:13;;;;;;;;;;;18.00;99.90;18.10;99039.00;;;;338215;28;83393;-90
2023/08/27 00:37:25;;;;;;;;;;;18.00;99.90;18.10;99051.00;;;;338695;28;95307;-89
2023/08/27 00:37:37;;;;;;;;;;;18.00;99.90;18.20;99052.00;;;;340844;28;82376;-90
2023/08/27 00:37:49;;;;;;;;;;;18.00;99.90;18.10;99044.00;;;;340055;28;94068;-89
2023/08/27 00:38:00;;;;;;;;;;;18.00;99.90;18.10;99047.00;;;;338033;28;82560;-90
2023/08/27 00:38:12;;;;;;;;;;;18.00;99.90;18.10;99051.00;;;;338769;28;96669;-89
2023/08/27 00:38:24;;;;;;;;;;;18.00;99.90;18.10;99051.00;;;;338105;28;83477;-89
2023/08/27 00:38:37;;;;;;;;;;;18.00;99.90;18.00;99034.00;;;;338526;28;95625;-89
2023/08/27 00:38:49;;;;;;;;;;;18.00;99.90;18.10;99038.00;;;;339445;28;83525;-89
2023/08/27 00:39:00;;;;;;;;;;;18.00;99.90;18.10;99041.00;;;;338548;28;97482;-90
2023/08/27 00:39:12;;;;;;;;;;;18.00;99.90;18.10;99048.00;;;;339511;28;82421;-89
2023/08/27 00:39:25;;;;;;;;;;;18.00;99.90;18.20;99040.00;;;;338689;28;95407;-89
2023/08/27 00:39:37;;;;;;;;;;;18.00;99.90;18.20;99050.00;;;;338134;28;83332;-89
2023/08/27 00:39:48;;;;;;;;;;;18.00;99.90;18.20;99038.00;;;;337309;28;96349;-89
2023/08/27 00:40:00;;;;;;;;;;;18.00;99.90;18.20;99035.00;;;;340689;28;83563;-89
2023/08/27 00:40:13;;;;;;;;;;;18.10;99.90;18.10;99037.00;;;;340050;28;96652;-89
2023/08/27 00:40:28;;;;;;;;;;;18.00;99.90;18.00;99043.00;;;;339387;28;84038;-89
2023/08/27 00:40:41;;;;;;;;;;;18.00;99.90;18.00;99034.00;;;;337364;28;96790;-89
2023/08/27 00:40:52;;;;;;;;;;;18.00;99.90;18.10;99033.00;;;;342167;28;83408;-89
2023/08/27 00:41:04;;;;;;;;;;;18.10;99.90;18.00;99032.00;;;;338545;28;98031;-89
2023/08/27 00:41:17;;;;;;;;;;;18.00;99.90;18.10;99027.00;;;;338108;28;82552;-89
2023/08/27 00:41:29;;;;;;;;;;;18.00;99.90;18.10;99028.00;;;;338642;28;96508;-89
2023/08/27 00:41:40;;;;;;;;;;;18.00;99.90;18.10;99029.00;;;;339431;28;82490;-89
2023/08/27 00:41:52;;;;;;;;;;;18.00;99.90;18.10;99041.00;;;;337352;28;96897;-89
2023/08/27 00:42:05;;;;;;;;;;;18.10;99.90;18.00;99029.00;;;;339431;28;83372;-89
2023/08/27 00:42:16;;;;;;;;;;;18.00;99.90;18.10;99027.00;;;;337442;28;95275;-89
2023/08/27 00:42:28;;;;;;;;;;;18.00;99.90;18.10;99026.00;;;;340701;28;82601;-89
2023/08/27 00:42:40;;;;;;;;;;;18.00;99.90;18.00;99031.00;;;;336108;28;96406;-89
2023/08/27 00:42:52;;;;;;;;;;;18.00;99.90;18.00;99036.00;;;;337462;28;83349;-89
2023/08/27 00:43:04;;;;;;;;;;;18.00;99.90;18.10;99031.00;;;;339907;28;96113;-89
2023/08/27 00:43:15;;;;;;;;;;;18.10;99.90;18.10;99037.00;;;;340864;28;82511;-89
2023/08/27 00:43:27;;;;;;;;;;;18.00;99.90;18.00;99028.00;;;;341328;28;96793;-89
2023/08/27 00:43:41;;;;;;;;;;;18.00;99.90;18.00;99034.00;;;;340559;28;82596;-89
2023/08/27 00:43:53;;;;;;;;;;;18.00;99.90;18.00;99032.00;;;;337403;28;95429;-89
2023/08/27 00:44:05;;;;;;;;;;;18.10;99.90;18.00;99032.00;;;;340690;28;83425;-89
2023/08/27 00:44:17;;;;;;;;;;;18.00;99.90;18.00;99035.00;;;;342664;28;96736;-89
2023/08/27 00:44:28;;;;;;;;;;;18.00;99.90;17.90;99035.00;;;;340749;28;82405;-89
2023/08/27 00:44:40;;;;;;;;;;;18.00;99.90;18.00;99029.00;;;;339970;28;96604;-89
2023/08/27 00:44:52;;;;;;;;;;;18.10;99.90;17.90;99033.00;;;;343397;28;82621;-89
2023/08/27 00:45:04;;;;;;;;;;;18.00;99.90;17.90;99031.00;;;;341173;28;97118;-88
2023/08/27 00:45:16;;;;;;;;;;;18.00;99.90;18.00;99027.00;;;;340776;28;82551;-89
2023/08/27 00:45:28;;;;;;;;;;;18.00;99.90;18.00;99032.00;;;;341370;28;94192;-89
2023/08/27 00:45:40;;;;;;;;;;;18.00;99.90;18.00;99021.00;;;;343503;28;83394;-89
2023/08/27 00:45:52;;;;;;;;;;;18.00;99.90;18.00;99036.00;;;;338722;28;96340;-89
2023/08/27 00:46:06;;;;;;;;;;;18.00;99.90;18.00;99034.00;;;;338075;28;83221;-89
2023/08/27 00:46:18;;;;;;;;;;;18.00;99.90;18.00;99032.00;;;;338653;28;96274;-89
2023/08/27 00:46:29;;;;;;;;;;;18.00;99.90;18.00;99032.00;;;;340679;28;83535;-89
2023/08/27 00:46:42;;;;;;;;;;;18.00;99.90;18.00;99035.00;;;;338731;28;96279;-89
2023/08/27 00:46:54;;;;;;;;;;;18.00;99.90;18.00;99034.00;;;;340740;28;83413;-89
2023/08/27 00:47:06;;;;;;;;;;;18.00;99.90;18.00;99025.00;;;;341159;28;97551;-89
2023/08/27 00:47:18;;;;;;;;;;;18.00;99.90;18.00;99027.00;;;;340768;28;83252;-89
2023/08/27 00:47:30;;;;;;;;;;;18.00;99.90;18.00;99021.00;;;;338631;28;96494;-90
2023/08/27 00:47:42;;;;;;;;;;;18.00;99.90;18.10;99028.00;;;;342042;28;83484;-89
2023/08/27 00:47:54;;;;;;;;;;;18.00;99.90;18.10;99027.00;;;;339988;28;95278;-90
2023/08/27 00:48:06;;;;;;;;;;;18.00;99.90;18.10;99030.00;;;;340833;28;82556;-89
2023/08/27 00:48:18;;;;;;;;;;;18.00;99.90;18.00;99029.00;;;;341388;28;96858;-89
2023/08/27 00:48:30;;;;;;;;;;;18.00;99.90;18.00;99031.00;;;;343413;28;83448;-89
2023/08/27 00:48:41;;;;;;;;;;;18.00;99.90;18.10;99030.00;;;;340051;28;96538;-89
2023/08/27 00:48:53;;;;;;;;;;;18.00;99.90;18.10;99027.00;;;;340703;28;83601;-89
2023/08/27 00:49:05;;;;;;;;;;;18.00;99.90;18.10;99023.00;;;;339759;28;96358;-89
2023/08/27 00:49:17;;;;;;;;;;;18.00;99.90;18.00;99020.00;;;;339424;28;83338;-89
2023/08/27 00:49:29;;;;;;;;;;;18.00;99.90;18.00;99012.00;;;;341331;28;96619;-89
2023/08/27 00:49:42;;;;;;;;;;;18.00;99.90;18.00;99022.00;;;;343500;28;83333;-89
2023/08/27 00:49:54;;;;;;;;;;;18.00;99.90;18.00;99013.00;;;;339956;28;96348;-89
2023/08/27 00:50:07;;;;;;;;;;;18.00;99.90;18.10;99007.00;;;;340768;28;82505;-89
2023/08/27 00:50:19;;;;;;;;;;;18.10;99.90;18.00;99011.00;;;;340020;28;95946;-89
2023/08/27 00:50:31;;;;;;;;;;;18.00;99.90;18.10;99012.00;;;;342155;28;82488;-89
2023/08/27 00:50:43;;;;;;;;;;;18.00;99.90;18.10;99008.00;;;;341376;28;95331;-88
2023/08/27 00:50:55;;;;;;;;;;;18.00;99.90;18.10;99005.00;;;;342135;28;83437;-89
2023/08/27 00:51:07;;;;;;;;;;;18.00;99.90;18.10;99004.00;;;;339845;28;97353;-89
2023/08/27 00:51:18;;;;;;;;;;;18.10;99.90;18.10;99001.00;;;;340765;28;83316;-89
2023/08/27 00:51:30;;;;;;;;;;;18.10;99.90;18.10;98998.00;;;;340037;28;95748;-89
2023/08/27 00:51:43;;;;;;;;;;;18.10;99.90;18.10;98999.00;;;;340746;28;83405;-89
2023/08/27 00:51:56;;;;;;;;;;;18.10;99.90;18.10;98988.00;;;;341285;28;95574;-89
2023/08/27 00:52:08;;;;;;;;;;;18.00;99.90;18.10;98989.00;;;;340750;28;83397;-89
2023/08/27 00:52:20;;;;;;;;;;;18.10;99.90;18.10;98986.00;;;;339966;28;95247;-89
2023/08/27 00:52:32;;;;;;;;;;;18.10;99.90;18.10;98984.00;;;;342078;28;82513;-88
2023/08/27 00:52:44;;;;;;;;;;;18.10;99.90;18.00;98981.00;;;;342729;28;96572;-89
2023/08/27 00:52:56;;;;;;;;;;;18.10;99.90;18.00;98975.00;;;;339419;28;82622;-90
2023/08/27 00:53:09;;;;;;;;;;;18.10;99.90;18.00;98980.00;;;;338446;28;97497;-89
2023/08/27 00:53:21;;;;;;;;;;;18.00;99.90;18.20;98979.00;;;;340766;28;82376;-89
2023/08/27 00:53:32;;;;;;;;;;;18.00;99.90;18.20;98973.00;;;;340019;28;95337;-90
2023/08/27 00:53:44;;;;;;;;;;;18.10;99.90;18.30;98985.00;;;;343436;28;83373;-89
2023/08/27 00:53:56;;;;;;;;;;;18.10;99.90;18.40;98980.00;;;;341368;28;96484;-89
2023/08/27 00:54:08;;;;;;;;;;;18.10;99.90;18.30;98987.00;;;;342160;28;83434;-89
2023/08/27 00:54:19;;;;;;;;;;;18.10;99.90;18.40;98976.00;;;;341295;28;96063;-89
2023/08/27 00:54:31;;;;;;;;;;;18.10;99.90;18.50;98975.00;;;;340888;28;82429;-88
2023/08/27 00:54:44;;;;;;;;;;;18.10;99.90;18.50;98982.00;;;;339948;28;96356;-88
2023/08/27 00:54:56;;;;;;;;;;;18.10;99.90;18.50;98978.00;;;;339440;28;82437;-89
2023/08/27 00:55:08;;;;;;;;;;;18.10;99.90;18.50;98976.00;;;;338520;28;97297;-89
2023/08/27 00:55:20;;;;;;;;;;;18.10;99.90;18.50;98976.00;;;;340613;28;83872;-89
2023/08/27 00:55:32;;;;;;;;;;;18.20;99.90;18.40;98974.00;;;;341409;28;94936;-90
2023/08/27 00:55:44;;;;;;;;;;;18.10;99.90;18.40;98978.00;;;;340707;28;83388;-89
2023/08/27 00:55:56;;;;;;;;;;;18.20;99.90;18.30;98977.00;;;;342705;28;95386;-89
2023/08/27 00:56:08;;;;;;;;;;;18.20;99.90;18.30;98980.00;;;;340710;28;83427;-89
2023/08/27 00:56:20;;;;;;;;;;;18.20;99.90;18.30;98975.00;;;;338620;28;96232;-89
2023/08/27 00:56:32;;;;;;;;;;;18.20;99.90;18.40;98977.00;;;;342158;28;83427;-89
2023/08/27 00:56:44;;;;;;;;;;;18.20;99.90;18.40;98977.00;;;;340015;28;96573;-89
2023/08/27 00:56:56;;;;;;;;;;;18.10;99.90;18.40;98975.00;;;;340771;28;83442;-89
2023/08/27 00:57:08;;;;;;;;;;;18.20;99.90;18.30;98981.00;;;;339836;28;93954;-89
2023/08/27 00:57:20;;;;;;;;;;;18.10;99.90;18.20;98976.00;;;;343478;28;83574;-89
2023/08/27 00:57:33;;;;;;;;;;;18.10;99.90;18.20;98978.00;;;;341487;28;93854;-89
2023/08/27 00:57:45;;;;;;;;;;;18.20;99.90;18.20;98972.00;;;;339482;28;82477;-89
2023/08/27 00:57:56;;;;;;;;;;;18.10;99.90;18.30;98976.00;;;;341349;28;95234;-89
2023/08/27 00:58:08;;;;;;;;;;;18.10;99.90;18.30;98977.00;;;;342036;28;83417;-89
2023/08/27 00:58:20;;;;;;;;;;;18.20;99.90;18.40;98984.00;;;;339978;28;95243;-89
2023/08/27 00:58:32;;;;;;;;;;;18.20;99.90;18.30;98968.00;;;;343477;28;82386;-89
2023/08/27 00:58:43;;;;;;;;;;;18.20;99.90;18.20;98981.00;;;;339874;28;96528;-89
2023/08/27 00:58:55;;;;;;;;;;;18.10;99.90;18.20;98973.00;;;;342137;28;83468;-88
2023/08/27 00:59:07;;;;;;;;;;;18.10;99.90;18.20;98977.00;;;;339533;28;97579;-89
2023/08/27 00:59:19;;;;;;;;;;;18.20;99.90;18.20;98974.00;;;;340773;28;82607;-89
2023/08/27 00:59:31;;;;;;;;;;;18.20;99.90;18.20;98974.00;;;;338635;28;96537;-89
2023/08/27 00:59:43;;;;;;;;;;;18.20;99.90;18.20;98976.00;;;;340751;28;82495;-89
2023/08/27 00:59:55;;;;;;;;;;;18.20;99.90;18.20;98972.00;;;;340014;28;93611;-89